Time;durP1;ratioP1;P1;durP2;ratioP2;P2;SDS_P1;SDS_P2;PMS_P1;PMS_P2;Temp;Humidity;BMP_temperature;BMP_pressure;BME280_temperature;BME280_humidity;BME280_pressure;Samples;Min_cycle;Max_cycle;Signal;HPM_P1;HPM_P2
2021/08/17 00:00:28;;;;;;;5.10;4.60;;;14.80;99.90;;;;;;5016546;28;21073;-59
2021/08/17 00:02:54;;;;;;;8.17;5.47;;;14.70;99.90;;;;;;5016743;28;20417;-59
2021/08/17 00:05:19;;;;;;;5.50;4.70;;;14.80;99.90;;;;;;5016610;28;20258;-58
2021/08/17 00:07:45;;;;;;;6.13;4.60;;;14.70;99.90;;;;;;5008025;28;20528;-58
2021/08/17 00:10:11;;;;;;;7.27;5.17;;;14.60;99.90;;;;;;5013962;28;20205;-58
2021/08/17 00:12:36;;;;;;;9.30;6.00;;;14.60;99.90;;;;;;5015797;28;20173;-59
2021/08/17 00:15:04;;;;;;;9.10;5.47;;;14.80;99.90;;;;;;5016399;28;20406;-59
2021/08/17 00:17:31;;;;;;;6.60;4.90;;;14.80;99.90;;;;;;5016527;28;20728;-59
2021/08/17 00:19:56;;;;;;;5.93;5.30;;;14.60;99.90;;;;;;5016482;28;20494;-59
2021/08/17 00:22:23;;;;;;;6.20;5.60;;;14.60;99.90;;;;;;5016697;28;20461;-59
2021/08/17 00:24:52;;;;;;;8.10;6.03;;;14.70;99.90;;;;;;5016713;28;20638;-59
2021/08/17 00:27:18;;;;;;;6.80;6.10;;;14.90;99.90;;;;;;5016392;28;20416;-58
2021/08/17 00:29:44;;;;;;;10.00;5.67;;;15.10;99.90;;;;;;5016180;28;20455;-59
2021/08/17 00:32:10;;;;;;;6.83;5.63;;;15.00;99.90;;;;;;5016050;28;20958;-59
2021/08/17 00:34:36;;;;;;;8.73;6.10;;;14.90;99.90;;;;;;5016600;28;20528;-59
2021/08/17 00:37:02;;;;;;;6.27;5.63;;;15.00;99.90;;;;;;5016322;28;20489;-57
2021/08/17 00:39:27;;;;;;;7.47;6.23;;;14.90;99.90;;;;;;5016416;28;20169;-58
2021/08/17 00:41:53;;;;;;;7.23;6.20;;;15.00;99.90;;;;;;5016229;28;20419;-58
2021/08/17 00:44:27;;;;;;;9.63;6.47;;;15.00;99.90;;;;;;5016010;28;20185;-58
2021/08/17 00:46:53;;;;;;;7.33;5.67;;;15.10;99.90;;;;;;5015931;28;20172;-59
2021/08/17 00:49:22;;;;;;;8.03;6.00;;;15.10;99.90;;;;;;5015010;28;20439;-58
2021/08/17 00:51:53;;;;;;;6.77;5.27;;;14.90;99.90;;;;;;5015820;28;20443;-58
2021/08/17 00:54:20;;;;;;;7.40;6.00;;;14.80;99.90;;;;;;5015800;28;20448;-57
2021/08/17 00:56:47;;;;;;;6.63;5.03;;;14.90;99.90;;;;;;5016013;28;20407;-58
2021/08/17 00:59:13;;;;;;;6.77;5.80;;;14.90;99.90;;;;;;5015516;28;20405;-58
2021/08/17 01:01:39;;;;;;;6.20;5.60;;;14.90;99.90;;;;;;5015627;28;20452;-58
2021/08/17 01:04:10;;;;;;;7.03;5.70;;;14.90;99.90;;;;;;5015946;28;20519;-58
2021/08/17 01:06:37;;;;;;;5.70;4.90;;;14.70;99.90;;;;;;5015975;28;20389;-58
2021/08/17 01:09:04;;;;;;;6.47;4.97;;;14.70;99.90;;;;;;5016073;28;20945;-58
2021/08/17 01:11:30;;;;;;;8.93;6.47;;;14.50;99.90;;;;;;5015809;28;20440;-59
2021/08/17 01:13:55;;;;;;;7.70;6.53;;;14.40;99.90;;;;;;5015013;28;20407;-57
2021/08/17 01:16:22;;;;;;;7.53;5.80;;;14.40;99.90;;;;;;5014306;28;20200;-57
2021/08/17 01:18:49;;;;;;;6.83;5.80;;;14.30;99.90;;;;;;5015720;28;20207;-58
2021/08/17 01:21:15;;;;;;;8.70;6.07;;;14.30;99.90;;;;;;5015281;28;20428;-58
2021/08/17 01:23:42;;;;;;;8.53;5.63;;;14.10;99.90;;;;;;5015640;28;20890;-58
2021/08/17 01:26:07;;;;;;;8.93;5.23;;;14.20;99.90;;;;;;5015335;28;20403;-58
2021/08/17 01:28:33;;;;;;;8.40;6.43;;;14.20;99.90;;;;;;5015058;28;20925;-56
2021/08/17 01:31:00;;;;;;;7.40;5.57;;;14.20;99.90;;;;;;5014979;28;20205;-58
2021/08/17 01:33:27;;;;;;;6.60;5.47;;;14.10;99.90;;;;;;5015586;28;20191;-57
2021/08/17 01:35:52;;;;;;;9.93;6.27;;;14.10;99.90;;;;;;5015528;28;20399;-58
2021/08/17 01:38:18;;;;;;;6.67;5.23;;;14.00;99.90;;;;;;5015137;28;20409;-57
2021/08/17 01:40:43;;;;;;;8.33;5.67;;;14.20;99.90;;;;;;5015391;28;20226;-57
2021/08/17 01:43:09;;;;;;;7.60;6.00;;;14.00;99.90;;;;;;5017528;28;20180;-58
2021/08/17 01:45:35;;;;;;;9.73;5.80;;;13.80;99.90;;;;;;5015197;28;20180;-57
2021/08/17 01:48:00;;;;;;;5.97;4.97;;;13.90;99.90;;;;;;5015211;28;20649;-57
2021/08/17 01:50:26;;;;;;;7.10;5.70;;;13.90;99.90;;;;;;5014678;28;20196;-58
2021/08/17 01:52:52;;;;;;;8.53;6.17;;;13.70;99.90;;;;;;5015138;28;20172;-57
2021/08/17 01:55:18;;;;;;;6.07;5.30;;;13.60;99.90;;;;;;5014862;28;20219;-57
2021/08/17 01:57:44;;;;;;;9.10;5.33;;;13.60;99.90;;;;;;5014493;28;20407;-58
2021/08/17 02:00:12;;;;;;;9.63;7.13;;;13.70;99.90;;;;;;5014715;28;20189;-58
2021/08/17 02:02:38;;;;;;;7.40;5.77;;;13.70;99.90;;;;;;5014726;28;20781;-58
2021/08/17 02:05:04;;;;;;;6.67;5.97;;;13.70;99.90;;;;;;5015156;28;20421;-57
2021/08/17 02:07:30;;;;;;;7.60;5.77;;;13.70;99.90;;;;;;5014735;28;20469;-58
2021/08/17 02:09:55;;;;;;;8.13;5.43;;;13.80;99.90;;;;;;5014796;28;20483;-58
2021/08/17 02:12:21;;;;;;;7.13;5.60;;;13.80;99.90;;;;;;5014809;28;20227;-58
2021/08/17 02:14:46;;;;;;;8.47;5.20;;;13.70;99.90;;;;;;4996923;28;20664;-56
2021/08/17 02:17:12;;;;;;;7.70;5.23;;;13.80;99.90;;;;;;5014243;28;20156;-58
2021/08/17 02:19:38;;;;;;;8.53;6.23;;;13.80;99.90;;;;;;5014548;28;20576;-58
2021/08/17 02:22:03;;;;;;;6.70;5.60;;;13.90;99.90;;;;;;5014233;28;20220;-58
2021/08/17 02:24:29;;;;;;;6.10;5.10;;;14.10;99.90;;;;;;5014231;28;20168;-58
2021/08/17 02:26:55;;;;;;;6.33;5.70;;;14.00;99.90;;;;;;5014642;28;20305;-54
2021/08/17 02:29:21;;;;;;;5.93;5.00;;;14.20;99.90;;;;;;5013906;28;20234;-58
2021/08/17 02:31:46;;;;;;;8.33;6.07;;;14.20;99.90;;;;;;5014038;28;20190;-58
2021/08/17 02:34:12;;;;;;;8.10;6.73;;;14.20;99.90;;;;;;5014056;28;20449;-58
2021/08/17 02:36:37;;;;;;;7.47;5.70;;;14.10;99.90;;;;;;5013998;28;20199;-57
2021/08/17 02:39:03;;;;;;;6.50;5.37;;;14.00;99.90;;;;;;5014168;28;20166;-56
2021/08/17 02:41:29;;;;;;;8.93;6.20;;;13.90;99.90;;;;;;5014085;28;20715;-54
2021/08/17 02:43:55;;;;;;;7.20;5.40;;;13.80;99.90;;;;;;5013773;28;20537;-57
2021/08/17 02:46:20;;;;;;;7.57;5.17;;;13.80;99.90;;;;;;5013574;28;20171;-56
2021/08/17 02:48:46;;;;;;;6.00;5.20;;;13.70;99.90;;;;;;5014077;28;20196;-56
2021/08/17 02:51:12;;;;;;;7.23;5.80;;;13.60;99.90;;;;;;5012402;28;20204;-56
2021/08/17 02:53:37;;;;;;;7.00;4.97;;;13.50;99.90;;;;;;5013757;28;20251;-54
2021/08/17 02:56:03;;;;;;;7.37;5.27;;;13.60;99.90;;;;;;5014162;28;20175;-57
2021/08/17 02:58:29;;;;;;;7.80;5.47;;;13.70;99.90;;;;;;5013548;28;20166;-56
2021/08/17 03:00:54;;;;;;;8.70;5.20;;;13.70;99.90;;;;;;5007996;28;20447;-58
2021/08/17 03:03:20;;;;;;;6.60;5.60;;;13.60;99.90;;;;;;4994042;28;20174;-58
2021/08/17 03:05:46;;;;;;;5.90;4.93;;;13.60;99.90;;;;;;4993989;28;20193;-56
2021/08/17 03:08:11;;;;;;;6.83;5.30;;;13.60;99.90;;;;;;4994192;28;20173;-58
2021/08/17 03:10:38;;;;;;;6.97;5.10;;;13.50;99.90;;;;;;4993603;28;20201;-57
2021/08/17 03:13:06;;;;;;;5.47;4.47;;;13.60;99.90;;;;;;4999107;28;20179;-58
2021/08/17 03:15:33;;;;;;;7.83;5.50;;;13.70;99.90;;;;;;5013485;28;20416;-58
2021/08/17 03:18:04;;;;;;;5.23;4.73;;;13.70;99.90;;;;;;5013579;28;20911;-59
2021/08/17 03:20:31;;;;;;;6.87;4.77;;;13.60;99.90;;;;;;5014017;28;20930;-53
2021/08/17 03:22:57;;;;;;;7.53;5.20;;;13.60;99.90;;;;;;5013487;28;20847;-57
2021/08/17 03:25:25;;;;;;;5.20;4.43;;;13.50;99.90;;;;;;5014194;28;20411;-58
2021/08/17 03:27:51;;;;;;;6.73;4.67;;;13.50;99.90;;;;;;5013534;28;20417;-55
2021/08/17 03:30:19;;;;;;;10.00;5.00;;;13.40;99.90;;;;;;5013275;28;20971;-59
2021/08/17 03:32:45;;;;;;;6.70;5.63;;;13.40;99.90;;;;;;5013116;28;20422;-56
2021/08/17 03:35:11;;;;;;;6.77;5.10;;;13.40;99.90;;;;;;4995820;28;20916;-57
2021/08/17 03:37:40;;;;;;;6.30;5.20;;;13.30;99.90;;;;;;5013552;28;20165;-58
2021/08/17 03:40:08;;;;;;;7.83;5.07;;;13.30;99.90;;;;;;5013304;28;20508;-58
2021/08/17 03:42:35;;;;;;;6.73;5.90;;;13.20;99.90;;;;;;5013276;28;20411;-58
2021/08/17 03:45:01;;;;;;;6.07;5.47;;;13.20;99.90;;;;;;5015891;28;20469;-57
2021/08/17 03:47:27;;;;;;;6.70;4.67;;;13.30;99.90;;;;;;5013003;28;20444;-58
2021/08/17 03:49:53;;;;;;;7.17;4.60;;;13.40;99.90;;;;;;5013142;28;20278;-59
2021/08/17 03:52:18;;;;;;;8.73;5.20;;;13.30;99.90;;;;;;5013399;28;20404;-58
2021/08/17 03:54:44;;;;;;;8.97;5.30;;;13.40;99.90;;;;;;5013298;28;20253;-57
2021/08/17 03:57:09;;;;;;;4.90;4.40;;;13.30;99.90;;;;;;5013143;28;20195;-58
2021/08/17 03:59:36;;;;;;;6.23;4.73;;;13.30;99.90;;;;;;5013119;28;20538;-58
2021/08/17 04:02:02;;;;;;;5.37;4.70;;;13.20;99.90;;;;;;5012784;28;20207;-58
2021/08/17 04:04:27;;;;;;;6.70;5.30;;;13.20;99.90;;;;;;5013531;28;20818;-58
2021/08/17 04:06:53;;;;;;;7.03;4.60;;;13.20;99.90;;;;;;5013364;28;20211;-58
2021/08/17 04:09:18;;;;;;;9.60;5.93;;;13.20;99.90;;;;;;5013227;28;20223;-58
2021/08/17 04:11:44;;;;;;;6.20;5.17;;;13.20;99.90;;;;;;5013035;28;20238;-57
2021/08/17 04:14:09;;;;;;;5.90;5.00;;;13.10;99.90;;;;;;5012724;28;20207;-55
2021/08/17 04:16:35;;;;;;;6.33;5.37;;;13.10;99.90;;;;;;5013010;28;20175;-58
2021/08/17 04:19:01;;;;;;;5.83;4.40;;;13.10;99.90;;;;;;5013081;28;20735;-58
2021/08/17 04:21:26;;;;;;;7.80;5.47;;;13.20;99.90;;;;;;5012855;28;20216;-58
2021/08/17 04:23:52;;;;;;;6.87;5.27;;;13.20;99.90;;;;;;5015716;28;20238;-58
2021/08/17 04:26:18;;;;;;;9.00;6.33;;;13.20;99.90;;;;;;5016667;28;20175;-58
2021/08/17 04:28:44;;;;;;;6.33;5.30;;;13.30;99.90;;;;;;5016097;28;20173;-58
2021/08/17 04:31:09;;;;;;;6.33;5.10;;;13.30;99.90;;;;;;5015870;28;20214;-58
2021/08/17 04:33:35;;;;;;;6.27;5.13;;;13.10;99.90;;;;;;5016449;28;20490;-58
2021/08/17 04:36:01;;;;;;;6.23;5.00;;;13.20;99.90;;;;;;5016284;28;20696;-57
2021/08/17 04:38:26;;;;;;;6.03;4.37;;;13.30;99.90;;;;;;5016380;28;20167;-58
2021/08/17 04:40:52;;;;;;;6.53;4.83;;;13.30;99.90;;;;;;5016015;28;20202;-57
2021/08/17 04:43:17;;;;;;;6.03;5.30;;;13.30;99.90;;;;;;5016130;28;20184;-57
2021/08/17 04:45:43;;;;;;;6.13;4.43;;;13.40;99.90;;;;;;5015969;28;20176;-56
2021/08/17 04:48:09;;;;;;;8.07;4.77;;;13.40;99.90;;;;;;5015968;28;20299;-57
2021/08/17 04:50:34;;;;;;;7.57;6.07;;;13.40;99.90;;;;;;5015809;28;20746;-57
2021/08/17 04:53:00;;;;;;;7.00;4.60;;;13.40;99.90;;;;;;5015922;28;20172;-58
2021/08/17 04:55:25;;;;;;;5.87;5.00;;;13.30;99.90;;;;;;5015957;28;20168;-58
2021/08/17 04:57:52;;;;;;;7.40;5.37;;;13.30;99.90;;;;;;5015829;28;20164;-57
2021/08/17 05:00:18;;;;;;;6.47;5.30;;;13.40;99.90;;;;;;5015481;28;20195;-54
2021/08/17 05:02:44;;;;;;;7.60;5.33;;;13.40;99.90;;;;;;5016058;28;20403;-57
2021/08/17 05:05:10;;;;;;;7.70;5.23;;;13.50;99.90;;;;;;5016249;28;20413;-58
2021/08/17 05:07:37;;;;;;;4.77;4.23;;;13.50;99.90;;;;;;5015778;28;20252;-55
2021/08/17 05:10:09;;;;;;;6.43;5.23;;;13.50;99.90;;;;;;5015836;28;20477;-56
2021/08/17 05:12:35;;;;;;;11.30;6.50;;;13.60;99.90;;;;;;5016189;28;20487;-57
2021/08/17 05:15:02;;;;;;;6.80;5.53;;;13.50;99.90;;;;;;5014742;28;20928;-56
2021/08/17 05:17:28;;;;;;;9.00;5.17;;;13.50;99.90;;;;;;5015311;28;20417;-56
2021/08/17 05:19:53;;;;;;;5.63;5.03;;;13.50;99.90;;;;;;5015335;28;20407;-57
2021/08/17 05:22:19;;;;;;;7.07;5.83;;;13.50;99.90;;;;;;5015420;28;20234;-54
2021/08/17 05:24:45;;;;;;;5.17;4.67;;;13.50;99.90;;;;;;5015334;28;20172;-56
2021/08/17 05:27:10;;;;;;;6.23;5.13;;;13.50;99.90;;;;;;5015469;28;20634;-56
2021/08/17 05:29:36;;;;;;;5.43;4.83;;;13.60;99.90;;;;;;5014972;28;20191;-58
2021/08/17 05:32:03;;;;;;;6.83;5.70;;;13.70;99.90;;;;;;5015232;28;20608;-57
2021/08/17 05:34:29;;;;;;;9.00;5.20;;;13.70;99.90;;;;;;5014742;28;20174;-58
2021/08/17 05:36:54;;;;;;;7.90;5.23;;;13.80;99.90;;;;;;5015223;28;20403;-58
2021/08/17 05:39:20;;;;;;;7.63;5.43;;;13.80;99.90;;;;;;5015637;28;20184;-58
2021/08/17 05:41:45;;;;;;;8.03;4.80;;;13.70;99.90;;;;;;5015088;28;20215;-57
2021/08/17 05:44:11;;;;;;;8.37;5.30;;;13.80;99.90;;;;;;5014654;28;20176;-56
2021/08/17 05:46:36;;;;;;;8.23;6.00;;;13.80;99.90;;;;;;5014667;28;20180;-56
2021/08/17 05:49:02;;;;;;;8.07;5.93;;;13.70;99.90;;;;;;5015075;28;20227;-58
2021/08/17 05:51:28;;;;;;;6.73;4.97;;;13.80;99.90;;;;;;5016267;28;20211;-58
2021/08/17 05:53:53;;;;;;;8.23;6.10;;;13.80;99.90;;;;;;5013178;28;20174;-58
2021/08/17 05:56:19;;;;;;;5.90;5.20;;;14.00;99.90;;;;;;5014689;28;20671;-59
2021/08/17 05:58:44;;;;;;;7.60;4.60;;;14.00;99.90;;;;;;5014601;28;20223;-57
2021/08/17 06:01:10;;;;;;;7.47;4.80;;;13.90;99.90;;;;;;5014383;28;20274;-59
2021/08/17 06:03:35;;;;;;;6.07;5.20;;;14.00;99.90;;;;;;5014711;28;20246;-59
2021/08/17 06:06:01;;;;;;;9.27;6.10;;;14.20;99.90;;;;;;5014608;28;20179;-59
2021/08/17 06:08:27;;;;;;;6.50;5.07;;;14.10;99.90;;;;;;5015137;28;20233;-59
2021/08/17 06:10:52;;;;;;;7.67;5.43;;;14.30;99.90;;;;;;5014425;28;20706;-57
2021/08/17 06:13:18;;;;;;;6.93;5.73;;;14.30;99.90;;;;;;5014314;28;20179;-59
2021/08/17 06:15:44;;;;;;;6.50;5.37;;;14.40;99.90;;;;;;5014115;28;20172;-59
2021/08/17 06:18:10;;;;;;;7.53;5.50;;;14.60;99.90;;;;;;5014202;28;20190;-59
2021/08/17 06:20:36;;;;;;;5.63;5.10;;;15.00;99.90;;;;;;5014493;28;20431;-59
2021/08/17 06:23:02;;;;;;;10.40;5.47;;;15.20;99.90;;;;;;5014472;28;20260;-58
2021/08/17 06:25:29;;;;;;;8.00;6.07;;;15.20;99.90;;;;;;5014194;28;20666;-59
2021/08/17 06:27:56;;;;;;;7.57;5.63;;;15.30;99.90;;;;;;5014647;28;20501;-59
2021/08/17 06:30:22;;;;;;;7.90;4.70;;;15.30;99.90;;;;;;5013951;28;20570;-55
2021/08/17 06:32:48;;;;;;;8.43;4.70;;;15.20;99.90;;;;;;5014064;28;20934;-59
2021/08/17 06:35:13;;;;;;;6.43;5.80;;;15.20;99.90;;;;;;5014085;28;20447;-57
2021/08/17 06:37:39;;;;;;;6.30;5.23;;;15.10;99.90;;;;;;5014056;28;20167;-59
2021/08/17 06:40:05;;;;;;;10.33;5.73;;;15.20;99.90;;;;;;5014350;28;20195;-58
2021/08/17 06:42:31;;;;;;;5.77;5.17;;;15.40;99.90;;;;;;5014334;28;20170;-59
2021/08/17 06:44:57;;;;;;;7.63;5.30;;;15.30;99.90;;;;;;5014005;28;20452;-59
2021/08/17 06:47:22;;;;;;;6.37;5.37;;;15.00;99.90;;;;;;5013189;28;20247;-59
2021/08/17 06:49:48;;;;;;;7.37;5.10;;;15.00;99.90;;;;;;5013844;28;20598;-59
2021/08/17 06:52:14;;;;;;;7.60;5.70;;;15.20;99.90;;;;;;5013945;28;20173;-59
2021/08/17 06:54:39;;;;;;;8.87;5.93;;;15.30;99.90;;;;;;5013762;28;20179;-57
2021/08/17 06:57:05;;;;;;;8.63;5.43;;;15.50;99.90;;;;;;5013717;28;20174;-58
2021/08/17 06:59:30;;;;;;;8.57;6.03;;;15.40;99.90;;;;;;5013572;28;20221;-60
2021/08/17 07:01:56;;;;;;;8.10;5.33;;;15.40;99.90;;;;;;5014001;28;20194;-59
2021/08/17 07:04:22;;;;;;;9.80;5.90;;;15.40;99.90;;;;;;5014330;28;20174;-58
2021/08/17 07:06:47;;;;;;;7.70;6.13;;;15.50;99.90;;;;;;5013836;28;20182;-59
2021/08/17 07:09:13;;;;;;;6.87;5.60;;;15.20;99.90;;;;;;5013908;28;20164;-59
2021/08/17 07:11:39;;;;;;;7.90;5.63;;;15.40;99.90;;;;;;5014129;28;20249;-59
2021/08/17 07:14:04;;;;;;;8.17;6.00;;;15.70;99.90;;;;;;5013598;28;20713;-59
2021/08/17 07:16:30;;;;;;;8.47;6.43;;;15.80;99.90;;;;;;5013632;28;20690;-59
2021/08/17 07:18:55;;;;;;;9.10;6.60;;;15.90;99.90;;;;;;5013687;28;20164;-59
2021/08/17 07:21:21;;;;;;;8.60;6.40;;;15.90;99.90;;;;;;5013414;28;20245;-59
2021/08/17 07:23:47;;;;;;;11.50;6.63;;;15.70;99.90;;;;;;5013476;28;20176;-58
2021/08/17 07:26:12;;;;;;;7.53;6.60;;;15.50;99.90;;;;;;5013480;28;20173;-59
2021/08/17 07:28:38;;;;;;;8.63;6.90;;;15.70;99.90;;;;;;5012183;28;20175;-58
2021/08/17 07:31:04;;;;;;;6.03;5.43;;;15.70;99.90;;;;;;5013087;28;20242;-58
2021/08/17 07:33:29;;;;;;;8.70;6.23;;;15.70;99.90;;;;;;5013121;28;20165;-59
2021/08/17 07:35:55;;;;;;;7.47;6.57;;;15.80;99.90;;;;;;5013605;28;20171;-58
2021/08/17 07:38:20;;;;;;;10.20;7.17;;;15.50;99.90;;;;;;5013426;28;20177;-58
2021/08/17 07:40:46;;;;;;;6.70;6.00;;;15.70;99.90;;;;;;5013660;28;20199;-59
2021/08/17 07:43:13;;;;;;;8.20;6.90;;;15.70;99.90;;;;;;5013209;28;20173;-58
2021/08/17 07:45:39;;;;;;;8.20;6.27;;;15.90;99.90;;;;;;5013031;28;20186;-57
2021/08/17 07:48:05;;;;;;;5.93;5.20;;;16.20;99.90;;;;;;5012995;28;20410;-57
2021/08/17 07:50:30;;;;;;;8.50;6.43;;;16.40;99.90;;;;;;5012997;28;20583;-59
2021/08/17 07:52:56;;;;;;;9.47;6.03;;;16.50;99.90;;;;;;5013542;28;20408;-57
2021/08/17 07:55:22;;;;;;;9.20;5.40;;;16.40;99.90;;;;;;5004315;28;20168;-60
2021/08/17 07:57:48;;;;;;;7.93;6.50;;;16.20;99.90;;;;;;5013480;28;20241;-57
2021/08/17 08:00:14;;;;;;;10.90;6.77;;;16.40;99.90;;;;;;5016548;28;20195;-58
2021/08/17 08:02:40;;;;;;;7.80;6.50;;;16.50;99.90;;;;;;5014412;28;20246;-58
2021/08/17 08:05:07;;;;;;;8.63;6.57;;;16.50;99.90;;;;;;5019550;28;20927;-58
2021/08/17 08:07:33;;;;;;;7.73;6.27;;;16.50;99.90;;;;;;5016853;28;20165;-58
2021/08/17 08:09:58;;;;;;;8.00;6.50;;;16.50;99.90;;;;;;5016725;28;20467;-58
2021/08/17 08:12:24;;;;;;;8.27;6.40;;;16.60;99.90;;;;;;5017185;28;20202;-57
2021/08/17 08:14:50;;;;;;;7.10;5.47;;;17.00;99.90;;;;;;5016732;28;20182;-58
2021/08/17 08:17:16;;;;;;;7.13;6.23;;;17.00;99.90;;;;;;5016624;28;20163;-59
2021/08/17 08:19:41;;;;;;;8.00;6.13;;;16.90;99.90;;;;;;5016211;28;20557;-57
2021/08/17 08:22:08;;;;;;;7.20;6.17;;;17.00;99.90;;;;;;5016812;28;20170;-58
2021/08/17 08:24:35;;;;;;;8.53;5.43;;;17.00;99.90;;;;;;5016747;28;20175;-59
2021/08/17 08:27:00;;;;;;;10.50;6.20;;;16.90;99.90;;;;;;5016732;28;20419;-58
2021/08/17 08:29:26;;;;;;;8.17;4.67;;;16.90;99.90;;;;;;5015951;28;20449;-58
2021/08/17 08:31:52;;;;;;;6.33;5.73;;;17.00;99.90;;;;;;5016210;28;20658;-57
2021/08/17 08:34:17;;;;;;;7.00;6.30;;;17.30;99.90;;;;;;5016351;28;20526;-56
2021/08/17 08:36:43;;;;;;;10.10;7.17;;;17.80;99.90;;;;;;5016650;28;20258;-57
2021/08/17 08:39:09;;;;;;;11.00;6.50;;;17.80;99.90;;;;;;5016914;28;20168;-58
2021/08/17 08:41:35;;;;;;;8.67;6.13;;;17.80;99.90;;;;;;5016272;28;20191;-57
2021/08/17 08:44:00;;;;;;;6.83;5.60;;;17.80;99.90;;;;;;5016149;28;20971;-57
2021/08/17 08:46:30;;;;;;;7.60;6.40;;;17.90;99.90;;;;;;5005316;28;20600;-56
2021/08/17 08:48:56;;;;;;;9.33;6.40;;;18.10;99.90;;;;;;5015663;28;20172;-58
2021/08/17 08:51:22;;;;;;;9.00;6.00;;;18.20;99.90;;;;;;5015679;28;20596;-57
2021/08/17 08:53:48;;;;;;;6.50;5.70;;;18.30;99.90;;;;;;5015968;28;20176;-58
2021/08/17 08:56:14;;;;;;;8.80;6.40;;;18.10;99.90;;;;;;5015226;28;20414;-55
2021/08/17 08:58:41;;;;;;;13.03;6.73;;;18.00;99.90;;;;;;5015972;28;20775;-57
2021/08/17 09:01:12;;;;;;;7.53;6.40;;;17.80;99.90;;;;;;5015685;28;20431;-58
2021/08/17 09:03:49;;;;;;;7.10;6.23;;;18.10;99.90;;;;;;5015629;28;20731;-56
2021/08/17 09:06:23;;;;;;;9.03;6.37;;;17.90;99.90;;;;;;5015636;28;20410;-55
2021/08/17 09:09:07;;;;;;;6.43;5.27;;;18.30;99.90;;;;;;5015829;28;20730;-56
2021/08/17 09:11:32;;;;;;;6.37;4.57;;;18.60;99.90;;;;;;5015857;28;20427;-56
2021/08/17 09:14:20;;;;;;;7.97;5.97;;;18.60;99.90;;;;;;5013003;28;20423;-56
2021/08/17 09:16:48;;;;;;;7.07;4.97;;;18.60;99.30;;;;;;5005928;28;20518;-52
2021/08/17 09:19:34;;;;;;;5.57;5.07;;;18.60;99.60;;;;;;4997346;28;20452;-57
2021/08/17 09:22:15;;;;;;;8.33;5.77;;;18.90;99.90;;;;;;4996379;28;20826;-57
2021/08/17 09:24:43;;;;;;;8.87;5.60;;;18.90;99.60;;;;;;4996051;28;20399;-57
2021/08/17 09:27:18;;;;;;;6.87;6.17;;;18.80;99.30;;;;;;4995763;28;20411;-57
2021/08/17 09:29:46;;;;;;;6.30;5.40;;;19.00;99.90;;;;;;4995384;28;20554;-56
2021/08/17 09:32:25;;;;;;;6.50;5.30;;;19.10;99.20;;;;;;4996015;28;20955;-55
2021/08/17 09:34:56;;;;;;;6.80;4.93;;;19.20;99.00;;;;;;4996261;28;20411;-57
2021/08/17 09:37:32;;;;;;;6.03;5.20;;;19.10;99.10;;;;;;4996026;28;20387;-56
2021/08/17 09:39:59;;;;;;;6.30;5.40;;;19.10;98.40;;;;;;4995235;28;20407;-55
2021/08/17 09:42:28;;;;;;;11.10;4.43;;;19.20;98.70;;;;;;4995551;28;20416;-56
2021/08/17 09:45:14;;;;;;;7.03;6.10;;;19.00;98.70;;;;;;5007882;28;20510;-56
2021/08/17 09:48:01;;;;;;;6.70;6.00;;;19.00;98.80;;;;;;5015418;28;20419;-55
2021/08/17 09:50:30;;;;;;;5.40;4.87;;;19.60;99.30;;;;;;5014882;28;20469;-57
2021/08/17 09:53:17;;;;;;;7.60;5.10;;;19.90;97.10;;;;;;5015482;28;20399;-57
2021/08/17 09:55:58;;;;;;;5.13;4.10;;;19.80;94.50;;;;;;5014803;28;20399;-57
2021/08/17 09:58:34;;;;;;;4.73;3.97;;;19.70;95.00;;;;;;5015077;28;20395;-56
2021/08/17 10:01:03;;;;;;;5.53;4.67;;;19.50;95.20;;;;;;5014446;28;20431;-57
2021/08/17 10:03:29;;;;;;;5.10;4.30;;;19.60;95.20;;;;;;5017052;28;20446;-58
2021/08/17 10:05:55;;;;;;;5.10;4.60;;;19.80;94.20;;;;;;5014640;28;20415;-59
2021/08/17 10:08:24;;;;;;;6.00;5.23;;;19.70;94.90;;;;;;5014907;28;20494;-60
2021/08/17 10:10:52;;;;;;;7.73;5.00;;;19.60;96.40;;;;;;5014647;28;20459;-56
2021/08/17 10:13:23;;;;;;;5.30;4.57;;;19.50;95.60;;;;;;5014384;28;20453;-56
2021/08/17 10:15:49;;;;;;;6.70;5.13;;;19.40;95.60;;;;;;5001730;28;20915;-54
2021/08/17 10:18:19;;;;;;;5.80;4.40;;;19.50;96.50;;;;;;5014426;28;20406;-57
2021/08/17 10:20:48;;;;;;;5.60;4.37;;;19.50;95.00;;;;;;5014939;28;20430;-56
2021/08/17 10:23:16;;;;;;;6.33;4.50;;;19.60;96.60;;;;;;5014526;28;20417;-57
2021/08/17 10:25:48;;;;;;;5.20;4.63;;;19.30;95.10;;;;;;5014578;28;20814;-55
2021/08/17 10:28:38;;;;;;;5.83;4.40;;;19.30;95.40;;;;;;5014418;28;20740;-57
2021/08/17 10:31:12;;;;;;;5.40;3.93;;;19.30;94.50;;;;;;5013791;28;21018;-57
2021/08/17 10:34:09;;;;;;;5.73;4.60;;;19.60;94.30;;;;;;5014318;28;20405;-58
2021/08/17 10:36:42;;;;;;;5.90;4.70;;;19.70;95.30;;;;;;5014521;28;20387;-58
2021/08/17 10:39:17;;;;;;;7.33;5.10;;;19.70;94.40;;;;;;5013894;28;20387;-56
2021/08/17 10:41:44;;;;;;;5.83;4.47;;;19.70;94.40;;;;;;5013880;28;20475;-58
2021/08/17 10:44:31;;;;;;;5.53;4.43;;;19.90;95.10;;;;;;5013913;28;20414;-58
2021/08/17 10:47:02;;;;;;;5.23;4.47;;;20.10;94.40;;;;;;5012010;28;20410;-56
2021/08/17 10:49:31;;;;;;;6.77;4.20;;;20.00;93.80;;;;;;4994374;28;20400;-58
2021/08/17 10:52:04;;;;;;;6.83;5.00;;;20.10;95.70;;;;;;4993939;28;20940;-58
2021/08/17 10:54:31;;;;;;;6.63;4.50;;;20.00;95.20;;;;;;4994259;28;20407;-57
2021/08/17 10:57:17;;;;;;;4.93;4.33;;;20.20;93.80;;;;;;4994267;28;20443;-58
2021/08/17 10:59:45;;;;;;;7.00;4.90;;;21.30;93.90;;;;;;4994456;28;20395;-57
2021/08/17 11:02:12;;;;;;;5.00;4.30;;;21.90;92.90;;;;;;4994048;28;20415;-57
2021/08/17 11:04:42;;;;;;;6.53;4.37;;;22.50;93.30;;;;;;4994372;28;20900;-56
2021/08/17 11:07:25;;;;;;;5.10;3.80;;;23.30;89.70;;;;;;4993968;28;20907;-58
2021/08/17 11:09:51;;;;;;;4.83;4.07;;;24.30;87.30;;;;;;4993765;28;20443;-57
2021/08/17 11:12:20;;;;;;;6.33;4.67;;;25.10;85.70;;;;;;4994454;28;20402;-56
2021/08/17 11:14:47;;;;;;;5.07;4.50;;;24.20;83.10;;;;;;4993879;28;20175;-55
2021/08/17 11:17:15;;;;;;;6.27;4.40;;;23.50;83.10;;;;;;5012663;28;20541;-57
2021/08/17 11:19:46;;;;;;;5.30;4.27;;;24.30;84.00;;;;;;5013698;28;20414;-58
2021/08/17 11:22:19;;;;;;;6.53;3.97;;;25.40;80.70;;;;;;5013767;28;20395;-58
2021/08/17 11:24:51;;;;;;;4.40;3.83;;;25.30;75.40;;;;;;5013578;28;20388;-57
2021/08/17 11:27:30;;;;;;;3.73;3.37;;;24.10;76.30;;;;;;5013858;28;20475;-55
2021/08/17 11:30:02;;;;;;;3.80;3.30;;;24.60;79.50;;;;;;5013638;28;20472;-57
2021/08/17 11:32:35;;;;;;;4.07;3.63;;;25.00;73.40;;;;;;5014004;28;20403;-58
2021/08/17 11:35:13;;;;;;;4.23;3.83;;;26.00;71.50;;;;;;5017944;28;20387;-59
2021/08/17 11:37:44;;;;;;;4.00;3.60;;;26.80;69.60;;;;;;5017628;28;20436;-59
2021/08/17 11:40:13;;;;;;;4.47;4.07;;;27.30;68.70;;;;;;5017391;28;20764;-59
2021/08/17 11:42:41;;;;;;;4.97;3.87;;;27.30;68.30;;;;;;5017377;28;20407;-59
2021/08/17 11:45:31;;;;;;;3.93;3.53;;;28.00;64.80;;;;;;5017448;28;20863;-58
2021/08/17 11:47:59;;;;;;;3.90;3.13;;;27.80;62.90;;;;;;5016911;28;20386;-58
2021/08/17 11:50:29;;;;;;;4.00;2.80;;;27.50;59.30;;;;;;5017052;28;21033;-55
2021/08/17 11:52:57;;;;;;;5.10;3.50;;;27.40;61.10;;;;;;5058417;23;20489;-62
2021/08/17 11:55:25;;;;;;;4.10;3.27;;;26.80;60.80;;;;;;5035928;28;20489;-62
2021/08/17 11:57:57;;;;;;;4.40;3.83;;;27.30;61.60;;;;;;5036720;28;20425;-62
2021/08/17 12:00:28;;;;;;;5.70;3.30;;;27.30;64.20;;;;;;5036672;28;20496;-60
2021/08/17 12:02:59;;;;;;;3.30;3.00;;;28.20;60.10;;;;;;5036483;28;20417;-60
2021/08/17 12:05:27;;;;;;;3.47;3.17;;;28.40;59.00;;;;;;5023030;28;20391;-61
2021/08/17 12:07:54;;;;;;;3.33;3.03;;;28.90;58.30;;;;;;5015978;28;20423;-62
2021/08/17 12:10:31;;;;;;;3.93;3.17;;;29.20;56.50;;;;;;5016535;28;20493;-62
2021/08/17 12:12:57;;;;;;;6.57;3.13;;;29.80;56.50;;;;;;5016827;28;20461;-60
2021/08/17 12:15:54;;;;;;;4.77;3.73;;;29.40;52.20;;;;;;5016691;28;20435;-60
2021/08/17 12:18:22;;;;;;;3.30;2.80;;;28.80;54.60;;;;;;5015924;28;20211;-61
2021/08/17 12:21:03;;;;;;;3.23;2.93;;;28.70;54.20;;;;;;5016988;28;20449;-62
2021/08/17 12:23:36;;;;;;;3.50;3.20;;;28.80;55.20;;;;;;5036297;28;20451;-61
2021/08/17 12:26:27;;;;;;;5.63;3.73;;;28.80;53.50;;;;;;5035809;28;20382;-62
2021/08/17 12:28:55;;;;;;;4.67;4.07;;;27.70;55.20;;;;;;5036520;28;20386;-61
2021/08/17 12:31:28;;;;;;;5.10;3.93;;;28.50;59.30;;;;;;5035737;28;20462;-61
2021/08/17 12:34:16;;;;;;;4.30;3.90;;;27.80;55.70;;;;;;5035983;28;20489;-61
2021/08/17 12:36:41;;;;;;;5.53;4.00;;;27.50;56.50;;;;;;5035255;28;20410;-61
2021/08/17 12:39:11;;;;;;;4.80;4.07;;;28.40;55.50;;;;;;5035870;28;20456;-62
2021/08/17 12:41:50;;;;;;;4.10;3.70;;;29.10;56.30;;;;;;5036140;28;20199;-62
2021/08/17 12:44:21;;;;;;;5.13;4.63;;;29.40;57.40;;;;;;5034883;28;20390;-61
2021/08/17 12:47:09;;;;;;;5.23;4.60;;;29.40;55.20;;;;;;5035683;28;20390;-62
2021/08/17 12:50:04;;;;;;;4.63;3.80;;;29.20;56.30;;;;;;5034370;28;20481;-62